Garden Ridge, Texas
Current Conditions -  °F | °C
As of 7:58 AM on Thursday 27 Nov 2014 (Local Time) from KRND Reporting Station
Clear Clear  
Wind Chill: 44°   Ceiling: Unl
Heat Index: 49°   Visibility: 10mi
Dew Point: 32°   Wind: 13mph
Humidity: 52%   Direction: 30°NNE
Pressure: 30.48"   Gusts: NA
Location:  29.6654°N, 98.3191°W
Report Text: KRND 271358Z AUTO 03011KT 10SM CLR 09/00 A3048 RMK AO2 SLP322 T00931001
Loading
Personal Weather Stations






























Interactive Weather Map New forecast layout! Learn more

10-Day Weather Forecast

Advertisements
Track Severe Weather on mobile